Time;durP1;ratioP1;P1;durP2;ratioP2;P2;SDS_P1;SDS_P2;PMS_P1;PMS_P2;Temp;Humidity;BMP_temperature;BMP_pressure;BME280_temperature;BME280_humidity;BME280_pressure;Samples;Min_cycle;Max_cycle;Signal;HPM_P1;HPM_P2
2023/07/08 00:02:10;;;;;;;5.18;4.68;;;;;;;;;;5092108;28;20044;-81
2023/07/08 00:04:41;;;;;;;8.32;5.03;;;;;;;;;;5092714;28;20561;-81
2023/07/08 00:07:13;;;;;;;5.38;4.85;;;;;;;;;;5091417;28;20048;-82
2023/07/08 00:09:40;;;;;;;5.50;5.00;;;;;;;;;;5091848;28;20112;-81
2023/07/08 00:12:11;;;;;;;5.70;5.03;;;;;;;;;;5091133;28;20048;-81
2023/07/08 00:14:38;;;;;;;7.13;4.95;;;;;;;;;;5091290;28;20040;-82
2023/07/08 00:17:11;;;;;;;7.18;4.88;;;;;;;;;;5091284;28;20055;-81
2023/07/08 00:19:38;;;;;;;5.70;5.05;;;;;;;;;;5092691;28;20094;-82
2023/07/08 00:22:09;;;;;;;7.13;4.68;;;;;;;;;;5091430;28;20044;-81
2023/07/08 00:24:36;;;;;;;6.20;4.90;;;;;;;;;;5091421;28;20075;-81
2023/07/08 00:27:03;;;;;;;6.68;4.88;;;;;;;;;;5092232;28;20051;-82
2023/07/08 00:29:30;;;;;;;7.82;4.30;;;;;;;;;;5090989;28;20484;-81
2023/07/08 00:31:58;;;;;;;10.38;5.50;;;;;;;;;;5091084;28;20056;-81
2023/07/08 00:34:25;;;;;;;5.88;5.35;;;;;;;;;;5091342;28;20055;-81
2023/07/08 00:36:52;;;;;;;5.43;4.93;;;;;;;;;;5091177;28;20044;-82
2023/07/08 00:39:19;;;;;;;8.70;5.30;;;;;;;;;;5092403;28;20384;-81
2023/07/08 00:41:47;;;;;;;10.45;5.80;;;;;;;;;;5090518;28;20511;-81
2023/07/08 00:44:15;;;;;;;6.13;5.47;;;;;;;;;;5091264;28;20052;-80
2023/07/08 00:47:00;;;;;;;6.30;5.70;;;;;;;;;;5092191;28;20113;-81
2023/07/08 00:49:32;;;;;;;6.55;5.32;;;;;;;;;;5091237;28;20052;-81
2023/07/08 00:52:19;;;;;;;5.95;5.35;;;;;;;;;;5090805;28;20102;-81
2023/07/08 00:54:46;;;;;;;6.75;5.78;;;;;;;;;;5090983;28;20052;-81
2023/07/08 00:57:14;;;;;;;10.93;5.70;;;;;;;;;;5092224;28;20458;-82
2023/07/08 00:59:48;;;;;;;9.52;5.95;;;;;;;;;;5090970;28;20044;-81
2023/07/08 01:02:17;;;;;;;6.28;5.68;;;;;;;;;;5090863;28;20044;-81
2023/07/08 01:05:02;;;;;;;7.28;5.72;;;;;;;;;;5091919;28;20048;-81
2023/07/08 01:07:32;;;;;;;5.95;5.00;;;;;;;;;;5092098;28;20113;-81
2023/07/08 01:10:03;;;;;;;9.25;5.60;;;;;;;;;;5092045;28;20087;-81
2023/07/08 01:12:32;;;;;;;5.90;5.30;;;;;;;;;;5094486;28;20052;-81
2023/07/08 01:15:02;;;;;;;8.75;5.70;;;;;;;;;;5094356;28;20457;-81
2023/07/08 01:17:32;;;;;;;6.50;5.90;;;;;;;;;;5095852;28;20052;-81
2023/07/08 01:20:04;;;;;;;6.68;5.53;;;;;;;;;;5095860;28;20048;-81
2023/07/08 01:22:32;;;;;;;6.15;5.55;;;;;;;;;;5094550;28;20048;-81
2023/07/08 01:25:03;;;;;;;8.48;6.05;;;;;;;;;;5094526;28;20484;-81
2023/07/08 01:27:31;;;;;;;8.23;5.75;;;;;;;;;;5095352;28;20086;-81
2023/07/08 01:29:59;;;;;;;8.68;5.25;;;;;;;;;;5094307;28;20086;-81
2023/07/08 01:32:26;;;;;;;10.00;5.75;;;;;;;;;;5095362;28;20454;-82
2023/07/08 01:35:00;;;;;;;6.03;5.53;;;;;;;;;;5095592;28;20407;-81
2023/07/08 01:37:36;;;;;;;9.23;6.50;;;;;;;;;;5094410;28;20419;-82
2023/07/08 01:40:16;;;;;;;6.53;5.82;;;;;;;;;;5094022;28;20135;-82
2023/07/08 01:42:43;;;;;;;6.40;5.82;;;;;;;;;;5093892;28;20051;-81
2023/07/08 01:45:15;;;;;;;9.35;6.45;;;;;;;;;;5094276;28;20078;-82
2023/07/08 01:47:43;;;;;;;6.28;5.65;;;;;;;;;;5095221;28;20083;-82
2023/07/08 01:50:11;;;;;;;7.43;6.15;;;;;;;;;;5095299;28;20400;-81
2023/07/08 01:52:39;;;;;;;8.93;5.75;;;;;;;;;;5093624;28;20048;-82
2023/07/08 01:55:06;;;;;;;6.13;5.60;;;;;;;;;;5094952;28;20435;-82
2023/07/08 01:57:34;;;;;;;7.60;6.18;;;;;;;;;;5093954;28;20101;-82
2023/07/08 02:00:01;;;;;;;6.90;5.43;;;;;;;;;;5093819;28;20066;-82
2023/07/08 02:02:28;;;;;;;6.40;5.82;;;;;;;;;;5093390;28;20473;-82
2023/07/08 02:04:55;;;;;;;7.03;5.72;;;;;;;;;;5094372;28;20557;-82
2023/07/08 02:07:23;;;;;;;9.10;6.05;;;;;;;;;;5093258;28;20496;-81
2023/07/08 02:09:50;;;;;;;7.25;5.78;;;;;;;;;;5093217;28;20541;-82
2023/07/08 02:12:17;;;;;;;7.25;5.88;;;;;;;;;;5093259;28;20051;-82
2023/07/08 02:14:45;;;;;;;7.07;6.10;;;;;;;;;;5093389;28;20048;-82
2023/07/08 02:17:16;;;;;;;8.93;6.22;;;;;;;;;;5093235;28;20460;-81
2023/07/08 02:19:44;;;;;;;8.70;5.97;;;;;;;;;;5093062;28;20090;-81
2023/07/08 02:22:11;;;;;;;7.00;6.30;;;;;;;;;;5093376;28;20405;-81
2023/07/08 02:24:38;;;;;;;7.43;6.53;;;;;;;;;;5093098;28;20105;-81
2023/07/08 02:27:05;;;;;;;7.03;6.03;;;;;;;;;;5094132;28;20044;-82
2023/07/08 02:29:33;;;;;;;6.88;6.13;;;;;;;;;;5093030;28;20048;-81
2023/07/08 02:32:00;;;;;;;7.57;6.43;;;;;;;;;;5093679;28;20500;-81
2023/07/08 02:34:27;;;;;;;10.88;6.63;;;;;;;;;;5092885;28;20521;-81
2023/07/08 02:36:56;;;;;;;7.38;6.63;;;;;;;;;;5094031;28;20094;-81
2023/07/08 02:39:23;;;;;;;7.72;6.75;;;;;;;;;;5094092;28;20083;-81
2023/07/08 02:41:50;;;;;;;7.15;6.40;;;;;;;;;;5092297;28;20074;-81
2023/07/08 02:44:18;;;;;;;8.73;6.57;;;;;;;;;;5092756;28;20051;-81
2023/07/08 02:46:45;;;;;;;8.40;6.47;;;;;;;;;;5093544;28;20082;-81
2023/07/08 02:49:12;;;;;;;11.90;6.35;;;;;;;;;;5093774;28;20048;-80
2023/07/08 02:51:40;;;;;;;7.50;6.60;;;;;;;;;;5092454;28;20044;-81
2023/07/08 02:54:07;;;;;;;7.03;6.05;;;;;;;;;;5093831;28;20056;-81
2023/07/08 02:56:34;;;;;;;6.78;6.03;;;;;;;;;;5093757;28;20097;-81
2023/07/08 02:59:02;;;;;;;7.32;6.63;;;;;;;;;;5092339;28;20044;-81
2023/07/08 03:01:29;;;;;;;8.38;6.68;;;;;;;;;;5093364;28;20422;-81
2023/07/08 03:03:59;;;;;;;9.55;6.57;;;;;;;;;;5091987;28;20512;-81
2023/07/08 03:06:27;;;;;;;8.07;6.45;;;;;;;;;;5092504;28;20082;-81
2023/07/08 03:08:54;;;;;;;7.95;6.47;;;;;;;;;;5093476;28;20105;-81
2023/07/08 03:11:21;;;;;;;7.50;6.72;;;;;;;;;;5093067;28;20044;-81
2023/07/08 03:13:48;;;;;;;7.53;6.65;;;;;;;;;;5093037;28;20110;-81
2023/07/08 03:16:16;;;;;;;7.68;6.85;;;;;;;;;;5093201;28;20131;-81
2023/07/08 03:18:46;;;;;;;7.13;6.43;;;;;;;;;;5093154;28;20044;-81
2023/07/08 03:21:15;;;;;;;7.22;6.20;;;;;;;;;;5093211;28;20055;-81
2023/07/08 03:23:42;;;;;;;6.72;6.13;;;;;;;;;;5092027;28;20051;-81
2023/07/08 03:26:14;;;;;;;8.18;6.60;;;;;;;;;;5091682;28;20101;-81
2023/07/08 03:28:41;;;;;;;11.00;6.75;;;;;;;;;;5092814;28;20549;-81
2023/07/08 03:31:09;;;;;;;8.18;6.82;;;;;;;;;;5093153;28;20101;-81
2023/07/08 03:33:37;;;;;;;7.13;6.43;;;;;;;;;;5091607;28;20071;-81
2023/07/08 03:36:04;;;;;;;10.15;6.70;;;;;;;;;;5091899;28;20047;-81
2023/07/08 03:38:32;;;;;;;7.38;6.68;;;;;;;;;;5091723;28;20048;-81
2023/07/08 03:40:59;;;;;;;7.53;6.72;;;;;;;;;;5092410;28;20473;-82
2023/07/08 03:43:26;;;;;;;8.48;7.15;;;;;;;;;;5092790;28;20419;-82
2023/07/08 03:45:54;;;;;;;8.63;7.20;;;;;;;;;;5091482;28;20052;-82
2023/07/08 03:48:21;;;;;;;8.95;6.45;;;;;;;;;;5091533;28;20462;-82
2023/07/08 03:50:49;;;;;;;6.65;5.95;;;;;;;;;;5091347;28;20267;-82
2023/07/08 03:53:16;;;;;;;6.95;6.32;;;;;;;;;;5091597;28;20407;-82
2023/07/08 03:55:44;;;;;;;8.70;7.10;;;;;;;;;;5092284;28;20549;-83
2023/07/08 03:58:11;;;;;;;8.23;6.07;;;;;;;;;;5091378;28;20136;-82
2023/07/08 04:00:38;;;;;;;6.90;6.30;;;;;;;;;;5091140;28;20496;-82
2023/07/08 04:03:05;;;;;;;9.02;7.40;;;;;;;;;;5092672;28;20044;-82
2023/07/08 04:05:33;;;;;;;13.38;9.38;;;;;;;;;;5092540;28;20075;-82
2023/07/08 04:08:00;;;;;;;15.07;8.27;;;;;;;;;;5092350;28;20071;-83
2023/07/08 04:10:27;;;;;;;12.73;8.93;;;;;;;;;;5091232;28;20512;-82
2023/07/08 04:12:54;;;;;;;12.07;9.25;;;;;;;;;;5092322;28;20666;-82
2023/07/08 04:15:25;;;;;;;11.00;7.93;;;;;;;;;;5091277;28;20450;-82
2023/07/08 04:17:55;;;;;;;16.98;10.90;;;;;;;;;;5092229;28;20545;-82
2023/07/08 04:20:22;;;;;;;17.98;11.43;;;;;;;;;;5092006;28;20407;-82
2023/07/08 04:22:50;;;;;;;18.23;10.95;;;;;;;;;;5090715;28;20109;-82
2023/07/08 04:25:18;;;;;;;11.65;7.05;;;;;;;;;;5092316;28;20044;-82
2023/07/08 04:27:45;;;;;;;9.55;6.78;;;;;;;;;;5090856;28;20501;-83
2023/07/08 04:30:31;;;;;;;6.05;5.45;;;;;;;;;;5092388;28;20040;-82
2023/07/08 04:32:59;;;;;;;7.13;5.93;;;;;;;;;;5090788;28;20062;-82
2023/07/08 04:35:26;;;;;;;7.85;5.93;;;;;;;;;;5092031;28;20544;-82
2023/07/08 04:37:54;;;;;;;9.55;7.18;;;;;;;;;;5092126;28;20103;-82
2023/07/08 04:40:21;;;;;;;10.27;6.15;;;;;;;;;;5091073;28;20055;-82
2023/07/08 04:42:51;;;;;;;7.38;6.28;;;;;;;;;;5091910;28;20117;-82
2023/07/08 04:45:19;;;;;;;8.90;5.65;;;;;;;;;;5090874;28;20048;-82
2023/07/08 04:47:51;;;;;;;8.00;5.85;;;;;;;;;;5094766;28;20328;-83
2023/07/08 04:50:19;;;;;;;7.35;5.97;;;;;;;;;;5095058;28;20109;-81
2023/07/08 04:52:46;;;;;;;7.35;5.10;;;;;;;;;;5094620;28;20500;-82
2023/07/08 04:55:13;;;;;;;5.53;5.07;;;;;;;;;;5094869;28;20068;-82
2023/07/08 04:57:41;;;;;;;5.95;5.22;;;;;;;;;;5094621;28;20097;-82
2023/07/08 05:00:12;;;;;;;4.97;4.45;;;;;;;;;;5095832;28;20075;-82
2023/07/08 05:02:39;;;;;;;5.40;4.90;;;;;;;;;;5095719;28;20052;-82
2023/07/08 05:05:07;;;;;;;6.35;5.18;;;;;;;;;;5094608;28;20078;-82
2023/07/08 05:07:35;;;;;;;9.68;5.22;;;;;;;;;;5095645;28;20052;-82
2023/07/08 05:10:02;;;;;;;7.53;5.22;;;;;;;;;;5094535;28;20052;-82
2023/07/08 05:12:29;;;;;;;9.52;5.25;;;;;;;;;;5094151;28;20048;-82
2023/07/08 05:14:57;;;;;;;5.20;4.80;;;;;;;;;;5094238;28;20484;-82
2023/07/08 05:17:25;;;;;;;6.85;5.03;;;;;;;;;;5094403;28;20093;-82
2023/07/08 05:19:53;;;;;;;5.13;4.70;;;;;;;;;;5094259;28;20052;-82
2023/07/08 05:22:25;;;;;;;5.55;4.40;;;;;;;;;;5095296;28;20048;-82
2023/07/08 05:24:55;;;;;;;8.57;4.35;;;;;;;;;;5093963;28;20093;-83
2023/07/08 05:27:22;;;;;;;4.88;4.22;;;;;;;;;;5093825;28;20565;-82
2023/07/08 05:29:50;;;;;;;6.38;4.50;;;;;;;;;;5095156;28;20105;-82
2023/07/08 05:32:18;;;;;;;6.15;4.53;;;;;;;;;;5094206;28;20099;-82
2023/07/08 05:34:45;;;;;;;8.32;4.40;;;;;;;;;;5093937;28;20041;-82
2023/07/08 05:37:13;;;;;;;4.30;3.90;;;;;;;;;;5093940;28;20101;-82
2023/07/08 05:39:41;;;;;;;4.10;3.80;;;;;;;;;;5094987;28;20040;-82
2023/07/08 05:42:08;;;;;;;4.25;3.85;;;;;;;;;;5093502;28;20056;-82
2023/07/08 05:44:35;;;;;;;7.00;4.22;;;;;;;;;;5093978;28;20052;-82
2023/07/08 05:47:03;;;;;;;3.97;3.67;;;;;;;;;;5094961;28;20072;-80
2023/07/08 05:49:30;;;;;;;4.93;4.10;;;;;;;;;;5093835;28;20143;-80
2023/07/08 05:51:57;;;;;;;10.70;4.53;;;;;;;;;;5094501;28;20044;-79
2023/07/08 05:54:25;;;;;;;9.15;4.13;;;;;;;;;;5094791;28;20097;-80
2023/07/08 05:56:53;;;;;;;7.43;4.15;;;;;;;;;;5093795;28;20048;-80
2023/07/08 05:59:20;;;;;;;3.92;3.35;;;;;;;;;;5093113;28;20044;-80
2023/07/08 06:01:48;;;;;;;6.45;4.03;;;;;;;;;;5093376;28;20043;-81
2023/07/08 06:04:15;;;;;;;4.00;3.70;;;;;;;;;;5094643;28;20053;-80
2023/07/08 06:06:42;;;;;;;5.40;3.83;;;;;;;;;;5093566;28;20058;-80
2023/07/08 06:09:09;;;;;;;6.68;3.88;;;;;;;;;;5093466;28;20500;-80
2023/07/08 06:11:37;;;;;;;5.55;3.83;;;;;;;;;;5094654;28;20082;-83
2023/07/08 06:14:04;;;;;;;5.78;4.03;;;;;;;;;;5093760;28;20051;-83
2023/07/08 06:16:32;;;;;;;6.75;4.20;;;;;;;;;;5094697;28;20080;-80
2023/07/08 06:19:07;;;;;;;6.90;3.97;;;;;;;;;;5093526;28;20113;-81
2023/07/08 06:21:34;;;;;;;9.23;3.80;;;;;;;;;;5093126;28;20060;-81
2023/07/08 06:24:01;;;;;;;11.77;4.32;;;;;;;;;;5093630;28;20074;-81
2023/07/08 06:26:29;;;;;;;6.35;4.00;;;;;;;;;;5094749;28;20454;-81
2023/07/08 06:28:56;;;;;;;6.60;3.67;;;;;;;;;;5094298;28;20055;-81
2023/07/08 06:31:23;;;;;;;6.85;3.42;;;;;;;;;;5093224;28;20083;-81
2023/07/08 06:33:51;;;;;;;4.78;3.55;;;;;;;;;;5094040;28;20533;-81
2023/07/08 06:36:18;;;;;;;4.20;3.80;;;;;;;;;;5094257;28;20040;-80
2023/07/08 06:38:45;;;;;;;4.28;3.92;;;;;;;;;;5094215;28;20048;-81
2023/07/08 06:41:13;;;;;;;4.30;3.80;;;;;;;;;;5093961;28;20446;-81
2023/07/08 06:43:40;;;;;;;7.47;3.38;;;;;;;;;;5092784;28;20052;-81
2023/07/08 06:46:07;;;;;;;4.68;3.63;;;;;;;;;;5092812;28;20070;-81
2023/07/08 06:48:37;;;;;;;7.10;3.80;;;;;;;;;;5092788;28;20134;-81
2023/07/08 06:51:04;;;;;;;6.03;4.30;;;;;;;;;;5092718;28;20040;-81
2023/07/08 06:53:31;;;;;;;4.75;3.45;;;;;;;;;;5092938;28;20233;-80
2023/07/08 06:55:59;;;;;;;4.03;3.72;;;;;;;;;;5092969;28;20058;-81
2023/07/08 06:58:26;;;;;;;4.22;3.90;;;;;;;;;;5092864;28;20052;-81
2023/07/08 07:00:54;;;;;;;5.45;3.30;;;;;;;;;;5092365;28;20058;-80
2023/07/08 07:03:21;;;;;;;3.92;3.58;;;;;;;;;;5094059;28;20079;-80
2023/07/08 07:05:48;;;;;;;4.57;4.03;;;;;;;;;;5093850;28;20056;-84
2023/07/08 07:08:18;;;;;;;3.95;3.53;;;;;;;;;;5092317;28;20056;-81
2023/07/08 07:10:45;;;;;;;4.60;3.85;;;;;;;;;;5092516;28;20040;-81
2023/07/08 07:13:13;;;;;;;6.85;3.80;;;;;;;;;;5093598;28;20055;-81
2023/07/08 07:15:40;;;;;;;4.80;3.55;;;;;;;;;;5092190;28;20044;-81
2023/07/08 07:18:08;;;;;;;6.68;3.50;;;;;;;;;;5092532;28;20556;-81
2023/07/08 07:20:36;;;;;;;3.72;3.50;;;;;;;;;;5093442;28;20052;-81
2023/07/08 07:23:04;;;;;;;4.63;3.97;;;;;;;;;;5093508;28;20121;-81
2023/07/08 07:25:31;;;;;;;6.38;3.63;;;;;;;;;;5092295;28;20059;-81
2023/07/08 07:27:59;;;;;;;6.88;3.85;;;;;;;;;;5091870;28;20504;-81
2023/07/08 07:30:26;;;;;;;5.03;3.75;;;;;;;;;;5093496;28;20060;-81
2023/07/08 07:32:53;;;;;;;10.90;4.30;;;;;;;;;;5091749;28;20101;-82
2023/07/08 07:35:22;;;;;;;5.00;3.78;;;;;;;;;;5091997;28;20403;-83
2023/07/08 07:37:49;;;;;;;6.65;3.92;;;;;;;;;;5092099;28;20056;-82
2023/07/08 07:40:17;;;;;;;6.63;3.67;;;;;;;;;;5092013;28;20089;-82
2023/07/08 07:42:45;;;;;;;3.70;3.40;;;;;;;;;;5091661;28;20056;-82
2023/07/08 07:45:12;;;;;;;3.92;3.55;;;;;;;;;;5093320;28;20121;-82
2023/07/08 07:47:41;;;;;;;3.40;3.13;;;;;;;;;;5091669;28;20040;-82
2023/07/08 07:50:09;;;;;;;3.83;3.53;;;;;;;;;;5093032;28;20519;-82
2023/07/08 07:52:37;;;;;;;4.03;3.47;;;;;;;;;;5092771;28;20433;-82
2023/07/08 07:55:05;;;;;;;4.28;3.35;;;;;;;;;;5091593;28;20117;-83
2023/07/08 07:57:32;;;;;;;7.50;3.10;;;;;;;;;;5091661;28;20052;-83
2023/07/08 07:59:59;;;;;;;7.72;3.65;;;;;;;;;;5091967;28;20044;-83
2023/07/08 08:02:27;;;;;;;5.43;3.50;;;;;;;;;;5091635;28;20480;-83
2023/07/08 08:04:54;;;;;;;7.93;4.10;;;;;;;;;;5091638;28;20381;-83
2023/07/08 08:07:21;;;;;;;4.10;3.40;;;;;;;;;;5092547;28;20048;-83
2023/07/08 08:09:48;;;;;;;3.38;3.08;;;;;;;;;;5092502;28;20052;-82
2023/07/08 08:12:16;;;;;;;3.30;3.10;;;;;;;;;;5092426;28;20073;-83
2023/07/08 08:14:43;;;;;;;3.63;3.33;;;;;;;;;;5092442;28;20056;-83
2023/07/08 08:17:10;;;;;;;3.65;3.13;;;;;;;;;;5092797;28;20051;-83
2023/07/08 08:19:37;;;;;;;3.17;2.83;;;;;;;;;;5092252;28;20048;-82
2023/07/08 08:22:05;;;;;;;3.28;3.08;;;;;;;;;;5090576;28;20044;-83
2023/07/08 08:24:32;;;;;;;3.17;2.97;;;;;;;;;;5092481;28;20051;-83
2023/07/08 08:26:59;;;;;;;7.10;6.32;;;;;;;;;;5091440;28;20116;-82
2023/07/08 08:29:26;;;;;;;3.30;3.10;;;;;;;;;;5092377;28;20156;-83
2023/07/08 08:31:54;;;;;;;4.82;4.43;;;;;;;;;;5091239;28;20097;-82
2023/07/08 08:34:21;;;;;;;3.30;3.08;;;;;;;;;;5091260;28;20086;-83
2023/07/08 08:36:48;;;;;;;3.00;2.80;;;;;;;;;;5092341;28;20082;-83
2023/07/08 08:39:16;;;;;;;3.25;3.05;;;;;;;;;;5091317;28;20048;-83
2023/07/08 08:41:43;;;;;;;3.67;3.08;;;;;;;;;;5091075;28;20068;-84
2023/07/08 08:44:14;;;;;;;3.10;2.83;;;;;;;;;;5091604;28;20048;-85
2023/07/08 08:46:45;;;;;;;2.88;2.63;;;;;;;;;;5091383;28;20048;-83
2023/07/08 08:49:13;;;;;;;3.50;3.10;;;;;;;;;;5091158;28;20086;-83
2023/07/08 08:51:40;;;;;;;5.03;4.63;;;;;;;;;;5091013;28;20048;-84
2023/07/08 08:54:09;;;;;;;3.10;2.90;;;;;;;;;;5091511;28;20104;-84
2023/07/08 08:56:44;;;;;;;4.05;3.00;;;;;;;;;;5091280;28;20040;-83
2023/07/08 08:59:30;;;;;;;4.15;3.00;;;;;;;;;;5091380;28;20093;-84
2023/07/08 09:01:57;;;;;;;3.42;3.05;;;;;;;;;;5091864;28;20044;-84
2023/07/08 09:04:28;;;;;;;4.15;3.25;;;;;;;;;;5092355;28;20469;-84
2023/07/08 09:07:01;;;;;;;3.22;3.03;;;;;;;;;;5090932;28;20563;-83
2023/07/08 09:09:34;;;;;;;3.15;2.92;;;;;;;;;;5091174;28;20052;-84
2023/07/08 09:12:04;;;;;;;3.20;2.90;;;;;;;;;;5090746;28;20052;-84
2023/07/08 09:14:33;;;;;;;3.55;2.88;;;;;;;;;;5090926;28;20105;-83
2023/07/08 09:17:15;;;;;;;3.33;3.03;;;;;;;;;;5091134;28;20075;-83
2023/07/08 09:19:45;;;;;;;2.72;2.63;;;;;;;;;;5092142;28;20441;-84
2023/07/08 09:22:12;;;;;;;3.30;3.10;;;;;;;;;;5090976;28;20058;-83
2023/07/08 09:24:44;;;;;;;3.20;2.72;;;;;;;;;;5091744;28;20503;-83
2023/07/08 09:27:12;;;;;;;4.65;2.95;;;;;;;;;;5092363;28;20051;-83
2023/07/08 09:29:39;;;;;;;3.25;3.05;;;;;;;;;;5090724;28;20051;-84
2023/07/08 09:32:18;;;;;;;3.60;3.30;;;;;;;;;;5093260;28;20102;-83
2023/07/08 09:34:47;;;;;;;3.22;3.03;;;;;;;;;;5094384;28;20052;-84
2023/07/08 09:37:21;;;;;;;3.38;3.00;;;;;;;;;;5094328;28;20094;-83
2023/07/08 09:39:48;;;;;;;2.90;2.70;;;;;;;;;;5094249;28;20048;-83
2023/07/08 09:42:16;;;;;;;6.72;3.70;;;;;;;;;;5094148;28;20056;-84
2023/07/08 09:44:45;;;;;;;3.50;3.20;;;;;;;;;;5095381;28;20109;-83
2023/07/08 09:47:23;;;;;;;3.70;3.03;;;;;;;;;;5095455;28;20048;-82
2023/07/08 09:49:52;;;;;;;4.13;3.00;;;;;;;;;;5093817;28;20531;-83
2023/07/08 09:52:20;;;;;;;3.50;3.20;;;;;;;;;;5095250;28;20051;-83
2023/07/08 09:54:47;;;;;;;3.78;3.47;;;;;;;;;;5094096;28;20051;-84
2023/07/08 09:57:32;;;;;;;8.52;4.20;;;;;;;;;;5094211;28;20044;-84
2023/07/08 10:00:03;;;;;;;4.13;3.05;;;;;;;;;;5095207;28;20070;-83
2023/07/08 10:02:42;;;;;;;5.30;4.18;;;;;;;;;;5093786;28;20101;-83
2023/07/08 10:05:15;;;;;;;4.68;3.42;;;;;;;;;;5094189;28;20052;-83
2023/07/08 10:07:42;;;;;;;10.27;3.95;;;;;;;;;;5095643;28;20094;-89
2023/07/08 10:10:16;;;;;;;4.10;3.80;;;;;;;;;;5095016;28;20052;-87
2023/07/08 10:13:00;;;;;;;3.60;3.30;;;;;;;;;;5094165;28;20063;-87
2023/07/08 10:15:33;;;;;;;3.63;3.35;;;;;;;;;;5095801;28;20048;-88
2023/07/08 10:18:01;;;;;;;3.13;2.92;;;;;;;;;;5095710;28;20044;-84
2023/07/08 10:20:37;;;;;;;3.50;3.22;;;;;;;;;;5093907;28;20044;-86
2023/07/08 10:23:24;;;;;;;7.90;3.80;;;;;;;;;;5094928;28;20082;-87
2023/07/08 10:25:56;;;;;;;6.45;3.42;;;;;;;;;;5094597;28;20044;-89
2023/07/08 10:28:44;;;;;;;3.95;3.25;;;;;;;;;;5093977;28;20047;-87
2023/07/08 10:31:24;;;;;;;3.88;3.33;;;;;;;;;;5093471;28;20569;-85
2023/07/08 10:33:58;;;;;;;3.60;3.22;;;;;;;;;;5094191;28;20084;-87
2023/07/08 10:36:40;;;;;;;3.45;3.25;;;;;;;;;;5095358;28;20052;-85
2023/07/08 10:39:28;;;;;;;3.75;3.53;;;;;;;;;;5095765;28;20048;-87
2023/07/08 10:42:13;;;;;;;3.90;3.50;;;;;;;;;;5093850;28;20048;-88
2023/07/08 10:44:57;;;;;;;3.78;3.47;;;;;;;;;;5094598;28;20058;-87
2023/07/08 10:47:24;;;;;;;3.40;3.20;;;;;;;;;;5093834;28;20040;-85
2023/07/08 10:49:58;;;;;;;3.63;3.42;;;;;;;;;;5093106;28;20056;-85
2023/07/08 10:52:25;;;;;;;3.28;3.08;;;;;;;;;;5094077;28;20106;-89
2023/07/08 10:54:52;;;;;;;3.25;3.10;;;;;;;;;;5093702;28;20055;-86
2023/07/08 10:57:36;;;;;;;3.90;3.22;;;;;;;;;;5094502;28;20044;-90
2023/07/08 11:00:16;;;;;;;3.88;3.58;;;;;;;;;;5095116;28;20052;-93
2023/07/08 11:02:57;;;;;;;5.03;3.50;;;;;;;;;;5095982;28;20059;-95
2023/07/08 11:05:31;;;;;;;4.03;3.60;;;;;;;;;;5094375;28;20484;-87
2023/07/08 11:08:04;;;;;;;3.90;3.60;;;;;;;;;;5094099;28;20134;-87
2023/07/08 11:10:32;;;;;;;;;;;;;;;;;;5095090;28;20040;-85
2023/07/08 11:13:04;;;;;;;3.42;3.13;;;;;;;;;;5093644;28;19920;-84
2023/07/08 11:15:31;;;;;;;3.60;3.40;;;;;;;;;;5092497;28;20048;-84
2023/07/08 11:18:17;;;;;;;3.65;3.35;;;;;;;;;;5092922;28;20052;-85
2023/07/08 11:20:54;;;;;;;4.45;3.35;;;;;;;;;;5093236;28;20101;-85
2023/07/08 11:23:24;;;;;;;4.50;3.28;;;;;;;;;;5092946;28;20044;-83
2023/07/08 11:25:55;;;;;;;3.80;3.20;;;;;;;;;;5093613;28;20086;-84
2023/07/08 11:28:23;;;;;;;4.00;3.70;;;;;;;;;;5092399;28;20040;-84
2023/07/08 11:30:52;;;;;;;3.72;3.50;;;;;;;;;;5093510;28;20424;-85
2023/07/08 11:33:22;;;;;;;3.47;3.28;;;;;;;;;;5092784;28;20412;-85
2023/07/08 11:35:56;;;;;;;3.83;3.53;;;;;;;;;;5092780;28;20048;-85
2023/07/08 11:38:23;;;;;;;3.60;3.33;;;;;;;;;;5092751;28;20116;-85
2023/07/08 11:40:52;;;;;;;3.35;3.15;;;;;;;;;;5093660;28;20087;-84
2023/07/08 11:43:21;;;;;;;3.55;3.25;;;;;;;;;;5093357;28;20055;-84
2023/07/08 11:45:50;;;;;;;4.57;3.50;;;;;;;;;;5092147;28;20052;-84
2023/07/08 11:48:19;;;;;;;4.22;3.42;;;;;;;;;;5092019;28;20094;-86
2023/07/08 11:50:48;;;;;;;3.60;3.40;;;;;;;;;;5092145;28;20511;-86
2023/07/08 11:53:30;;;;;;;3.85;3.55;;;;;;;;;;5092214;28;20105;-85
2023/07/08 11:56:16;;;;;;;6.40;3.85;;;;;;;;;;5092863;28;20125;-92
2023/07/08 11:58:49;;;;;;;4.93;3.38;;;;;;;;;;5092225;28;20048;-84
2023/07/08 12:01:23;;;;;;;3.60;3.40;;;;;;;;;;5093373;28;20473;-89
2023/07/08 12:03:52;;;;;;;4.20;3.88;;;;;;;;;;5092529;28;20044;-85
2023/07/08 12:06:31;;;;;;;3.90;3.53;;;;;;;;;;5092340;28;20044;-85
2023/07/08 12:09:00;;;;;;;3.10;2.90;;;;;;;;;;5092779;28;20456;-84
2023/07/08 12:11:40;;;;;;;4.85;3.75;;;;;;;;;;5092599;28;20055;-84
2023/07/08 12:14:08;;;;;;;5.13;3.65;;;;;;;;;;5092375;28;20504;-90
2023/07/08 12:16:36;;;;;;;3.97;3.67;;;;;;;;;;5092590;28;20044;-85
2023/07/08 12:19:05;;;;;;;4.65;3.80;;;;;;;;;;5092167;28;20058;-85
2023/07/08 12:21:35;;;;;;;6.03;3.58;;;;;;;;;;5090847;28;20485;-86
2023/07/08 12:24:06;;;;;;;4.10;3.60;;;;;;;;;;5089286;28;20133;-84
2023/07/08 12:26:34;;;;;;;3.53;3.30;;;;;;;;;;5089584;28;20054;-85
2023/07/08 12:29:01;;;;;;;13.82;5.55;;;;;;;;;;5089785;28;20660;-87
2023/07/08 12:31:31;;;;;;;9.32;3.65;;;;;;;;;;5090175;28;20051;-86
2023/07/08 12:33:58;;;;;;;7.38;3.88;;;;;;;;;;5088849;28;20044;-85
2023/07/08 12:36:27;;;;;;;10.07;4.47;;;;;;;;;;5090934;28;20048;-91
2023/07/08 12:38:56;;;;;;;9.18;3.65;;;;;;;;;;5091739;28;20048;-89
2023/07/08 12:41:25;;;;;;;15.40;4.57;;;;;;;;;;5092091;28;20101;-86
2023/07/08 12:43:53;;;;;;;7.90;3.70;;;;;;;;;;5093225;28;20047;-84
2023/07/08 12:46:21;;;;;;;99.07;9.00;;;;;;;;;;5091371;28;20051;-90
2023/07/08 12:48:49;;;;;;;3.88;3.58;;;;;;;;;;5091423;28;20060;-85
2023/07/08 12:51:21;;;;;;;4.30;3.90;;;;;;;;;;5091880;28;20526;-87
2023/07/08 12:53:49;;;;;;;10.93;4.95;;;;;;;;;;5091843;28;20071;-88
2023/07/08 12:56:17;;;;;;;4.65;4.25;;;;;;;;;;5092065;28;20492;-84
2023/07/08 12:58:46;;;;;;;3.80;3.50;;;;;;;;;;5090968;28;20044;-84
2023/07/08 13:01:16;;;;;;;3.70;3.50;;;;;;;;;;5090642;28;20255;-84
2023/07/08 13:03:47;;;;;;;4.13;3.65;;;;;;;;;;5091254;28;20143;-84
2023/07/08 13:06:17;;;;;;;4.45;4.05;;;;;;;;;;5091450;28;20040;-87
2023/07/08 13:08:44;;;;;;;4.35;3.95;;;;;;;;;;5096784;28;20048;-84
2023/07/08 13:11:14;;;;;;;4.28;3.88;;;;;;;;;;5095456;28;20048;-85
2023/07/08 13:13:49;;;;;;;4.03;3.67;;;;;;;;;;5095087;28;20101;-85
2023/07/08 13:16:16;;;;;;;4.10;3.70;;;;;;;;;;5095296;28;20146;-86
2023/07/08 13:18:44;;;;;;;4.07;3.78;;;;;;;;;;5095717;28;20127;-85
2023/07/08 13:21:15;;;;;;;10.07;3.78;;;;;;;;;;5097720;28;20059;-91
2023/07/08 13:23:43;;;;;;;3.95;3.55;;;;;;;;;;5095340;28;20106;-86
2023/07/08 13:26:18;;;;;;;3.80;3.50;;;;;;;;;;5095249;28;20148;-86
2023/07/08 13:28:46;;;;;;;3.58;3.38;;;;;;;;;;5096131;28;20052;-86
2023/07/08 13:31:20;;;;;;;3.70;3.40;;;;;;;;;;5096605;28;20052;-87
2023/07/08 13:33:55;;;;;;;3.72;3.40;;;;;;;;;;5095822;28;20131;-89
2023/07/08 13:36:35;;;;;;;4.28;3.47;;;;;;;;;;5095545;28;20144;-89
2023/07/08 13:39:05;;;;;;;5.00;3.53;;;;;;;;;;5097161;28;20090;-88
2023/07/08 13:41:33;;;;;;;6.15;3.60;;;;;;;;;;5094711;28;20048;-87
2023/07/08 13:44:07;;;;;;;3.90;3.55;;;;;;;;;;5096295;28;20558;-88
2023/07/08 13:46:39;;;;;;;3.33;3.05;;;;;;;;;;5095158;28;20055;-85
2023/07/08 13:49:15;;;;;;;5.25;3.67;;;;;;;;;;5094614;28;20043;-86
2023/07/08 13:51:45;;;;;;;3.75;3.45;;;;;;;;;;5095661;28;20094;-86
2023/07/08 13:54:22;;;;;;;3.65;3.33;;;;;;;;;;5095357;28;20052;-87
2023/07/08 13:56:50;;;;;;;5.30;4.80;;;;;;;;;;5096137;28;20083;-86
2023/07/08 13:59:24;;;;;;;3.92;3.60;;;;;;;;;;5094811;28;20131;-86
2023/07/08 14:01:56;;;;;;;4.03;3.72;;;;;;;;;;5094386;28;20056;-85
2023/07/08 14:04:28;;;;;;;4.30;3.80;;;;;;;;;;5095226;28;20055;-87
2023/07/08 14:06:55;;;;;;;4.30;3.95;;;;;;;;;;5095875;28;20055;-84
2023/07/08 14:09:24;;;;;;;3.50;3.20;;;;;;;;;;5094181;28;20105;-84
2023/07/08 14:11:52;;;;;;;3.65;3.35;;;;;;;;;;5093861;28;20052;-85
2023/07/08 14:14:19;;;;;;;5.07;4.47;;;;;;;;;;5094308;28;20504;-84
2023/07/08 14:16:48;;;;;;;5.70;3.95;;;;;;;;;;5093941;28;20484;-85
2023/07/08 14:19:19;;;;;;;4.03;3.67;;;;;;;;;;5092743;28;20449;-84
2023/07/08 14:21:49;;;;;;;4.00;3.70;;;;;;;;;;5093774;28;20527;-84
2023/07/08 14:24:17;;;;;;;4.00;3.53;;;;;;;;;;5093740;28;20051;-84
2023/07/08 14:26:44;;;;;;;5.00;3.22;;;;;;;;;;5093365;28;20056;-84
2023/07/08 14:29:12;;;;;;;3.65;3.40;;;;;;;;;;5094027;28;20361;-86
2023/07/08 14:31:40;;;;;;;3.55;3.25;;;;;;;;;;5092143;28;20105;-83
2023/07/08 14:34:08;;;;;;;5.70;3.63;;;;;;;;;;5093520;28;20040;-84
2023/07/08 14:36:36;;;;;;;6.30;3.63;;;;;;;;;;5093697;28;20044;-86
2023/07/08 14:39:11;;;;;;;7.35;3.90;;;;;;;;;;5093133;28;20044;-84
2023/07/08 14:41:39;;;;;;;4.55;3.80;;;;;;;;;;5092388;28;20055;-84
2023/07/08 14:44:27;;;;;;;6.20;3.80;;;;;;;;;;5093156;28;20451;-83
2023/07/08 14:46:54;;;;;;;4.63;4.03;;;;;;;;;;5093270;28;20048;-85
2023/07/08 14:49:23;;;;;;;5.05;3.45;;;;;;;;;;5092734;28;20056;-88
2023/07/08 14:51:50;;;;;;;3.72;3.33;;;;;;;;;;5094316;28;20507;-85
2023/07/08 14:54:18;;;;;;;4.60;3.40;;;;;;;;;;5092930;28;20104;-84
2023/07/08 14:56:46;;;;;;;4.15;3.30;;;;;;;;;;5092730;28;20503;-85
2023/07/08 14:59:18;;;;;;;4.00;3.70;;;;;;;;;;5092919;28;20048;-85